createdAt,value
2023-11-09T00:01:13.502Z,4.13
2023-11-09T00:03:41.080Z,3.95
2023-11-09T00:06:08.407Z,4.70
2023-11-09T00:08:35.592Z,4.53
2023-11-09T00:11:02.622Z,4.55
2023-11-09T00:13:29.680Z,3.90
2023-11-09T00:15:57.127Z,4.50
2023-11-09T00:18:24.150Z,4.68
2023-11-09T00:20:54.157Z,4.88
2023-11-09T00:23:21.677Z,4.38
2023-11-09T00:25:49.093Z,5.10
2023-11-09T00:28:16.524Z,4.45
2023-11-09T00:30:44.483Z,4.72
2023-11-09T00:33:11.693Z,5.18
2023-11-09T00:35:40.472Z,5.03
2023-11-09T00:38:09.022Z,4.60
2023-11-09T00:40:37.085Z,4.95
2023-11-09T00:43:04.018Z,6.13
2023-11-09T00:45:35.477Z,5.57
2023-11-09T00:48:04.151Z,5.20
2023-11-09T00:50:31.432Z,6.07
2023-11-09T00:52:58.429Z,5.70
2023-11-09T00:55:25.405Z,5.70
2023-11-09T00:57:52.338Z,7.03
2023-11-09T01:00:19.449Z,6.47
2023-11-09T01:02:49.882Z,6.03
2023-11-09T01:05:17.646Z,6.35
2023-11-09T01:07:45.284Z,6.15
2023-11-09T01:10:12.373Z,6.30
2023-11-09T01:12:39.306Z,5.95
2023-11-09T01:15:06.808Z,6.45
2023-11-09T01:17:37.380Z,6.32
2023-11-09T01:20:04.676Z,5.30
2023-11-09T01:22:31.773Z,5.60
2023-11-09T01:24:59.462Z,5.40
2023-11-09T01:27:26.508Z,6.45
2023-11-09T01:29:53.594Z,6.15
2023-11-09T01:32:20.583Z,6.85
2023-11-09T01:34:47.638Z,6.35
2023-11-09T01:37:14.598Z,6.85
2023-11-09T01:39:41.547Z,6.90
2023-11-09T01:42:09.002Z,6.82
2023-11-09T01:44:37.059Z,6.68
2023-11-09T01:47:04.587Z,6.00
2023-11-09T01:49:31.791Z,6.80
2023-11-09T01:51:58.943Z,6.82
2023-11-09T01:54:27.550Z,6.78
2023-11-09T01:56:54.505Z,7.88
2023-11-09T01:59:22.717Z,8.38
2023-11-09T02:01:53.822Z,8.50
2023-11-09T02:04:21.774Z,7.90
2023-11-09T02:06:49.369Z,8.02
2023-11-09T02:09:16.321Z,8.80
2023-11-09T02:11:43.926Z,8.90
2023-11-09T02:14:11.649Z,7.93
2023-11-09T02:16:39.269Z,8.45
2023-11-09T02:19:08.921Z,8.68
2023-11-09T02:21:56.804Z,8.90
2023-11-09T02:24:26.760Z,9.25
2023-11-09T02:26:56.408Z,9.02
2023-11-09T02:29:23.396Z,9.23
2023-11-09T02:31:50.741Z,8.18
2023-11-09T02:34:22.084Z,8.48
2023-11-09T02:36:49.419Z,9.02
2023-11-09T02:39:16.382Z,9.43
2023-11-09T02:41:44.153Z,8.60
2023-11-09T02:44:11.079Z,8.65
2023-11-09T02:46:38.592Z,8.60
2023-11-09T02:49:05.500Z,8.20
2023-11-09T02:51:32.716Z,8.38
2023-11-09T02:53:59.642Z,8.63
2023-11-09T02:56:27.054Z,7.53
2023-11-09T02:58:54.310Z,8.18
2023-11-09T03:01:21.768Z,7.90
2023-11-09T03:03:52.742Z,7.70
2023-11-09T03:06:22.572Z,7.95
2023-11-09T03:08:49.484Z,7.45
2023-11-09T03:11:20.644Z,7.55
2023-11-09T03:13:48.021Z,6.97
2023-11-09T03:16:15.069Z,7.13
2023-11-09T03:18:45.756Z,7.60
2023-11-09T03:21:12.722Z,7.35
2023-11-09T03:23:39.579Z,7.32
2023-11-09T03:26:06.501Z,8.10
2023-11-09T03:28:35.059Z,7.93
2023-11-09T03:31:05.370Z,9.07
2023-11-09T03:33:33.340Z,9.40
2023-11-09T03:36:01.058Z,10.55
2023-11-09T03:38:28.459Z,10.63
2023-11-09T03:40:55.770Z,10.10
2023-11-09T03:43:22.773Z,10.07
2023-11-09T03:45:49.692Z,11.27
2023-11-09T03:48:16.704Z,10.15
2023-11-09T03:50:44.416Z,9.95
2023-11-09T03:53:11.599Z,11.20
2023-11-09T03:55:38.675Z,11.18
2023-11-09T03:58:05.586Z,10.38
2023-11-09T04:00:32.492Z,10.40
2023-11-09T04:03:01.543Z,11.38
2023-11-09T04:05:28.442Z,9.98
2023-11-09T04:07:55.317Z,9.95
2023-11-09T04:10:22.951Z,9.65
2023-11-09T04:12:49.824Z,10.48
2023-11-09T04:15:16.752Z,9.85
2023-11-09T04:17:43.813Z,10.18
2023-11-09T04:20:10.995Z,10.15
2023-11-09T04:22:37.954Z,10.10
2023-11-09T04:25:05.510Z,9.23
2023-11-09T04:27:35.826Z,10.18
2023-11-09T04:30:02.969Z,9.93
2023-11-09T04:32:33.391Z,9.10
2023-11-09T04:35:00.428Z,9.32
2023-11-09T04:37:27.600Z,8.52
2023-11-09T04:39:59.893Z,10.30
2023-11-09T04:42:30.715Z,9.03
2023-11-09T04:45:01.169Z,8.80
2023-11-09T04:50:03.200Z,9.35
2023-11-09T04:52:35.293Z,9.13
2023-11-09T04:55:12.191Z,8.70
2023-11-09T04:57:59.270Z,9.57
2023-11-09T05:01:01.680Z,8.57
2023-11-09T05:03:47.208Z,9.85
2023-11-09T05:06:32.507Z,8.77
2023-11-09T05:09:00.493Z,8.40
2023-11-09T05:11:27.572Z,8.73
2023-11-09T05:13:54.943Z,9.77
2023-11-09T05:16:22.321Z,9.27
2023-11-09T05:18:49.442Z,9.95
2023-11-09T05:21:16.338Z,9.30
2023-11-09T05:23:43.242Z,9.73
2023-11-09T05:26:10.208Z,9.32
2023-11-09T05:28:37.084Z,9.57
2023-11-09T05:31:04.041Z,9.77
2023-11-09T05:33:31.051Z,10.73
2023-11-09T05:35:58.954Z,9.88
2023-11-09T05:38:25.806Z,10.38
2023-11-09T05:40:53.392Z,9.70
2023-11-09T05:43:21.058Z,9.15
2023-11-09T05:45:48.046Z,9.70
2023-11-09T05:48:15.057Z,10.85
2023-11-09T05:50:42.608Z,10.25
2023-11-09T05:53:09.505Z,10.48
2023-11-09T05:55:36.488Z,10.07
2023-11-09T05:58:04.949Z,10.13
2023-11-09T06:00:32.561Z,9.80
2023-11-09T06:02:59.666Z,9.88
2023-11-09T06:05:26.763Z,10.75
2023-11-09T06:07:54.404Z,9.23
2023-11-09T06:10:22.836Z,11.02
2023-11-09T06:12:49.966Z,9.73
2023-11-09T06:15:17.154Z,9.77
2023-11-09T06:17:45.144Z,9.43
2023-11-09T06:20:18.444Z,9.95
2023-11-09T06:22:45.586Z,9.93
2023-11-09T06:25:14.006Z,9.27
2023-11-09T06:27:42.581Z,8.80
2023-11-09T06:30:10.441Z,9.20
2023-11-09T06:32:37.515Z,9.85
2023-11-09T06:35:06.240Z,10.00
2023-11-09T06:37:36.125Z,8.70
2023-11-09T06:40:12.714Z,8.30
2023-11-09T06:42:43.890Z,8.75
2023-11-09T06:45:10.845Z,9.35
2023-11-09T06:47:40.209Z,8.73
2023-11-09T06:50:22.463Z,8.73
2023-11-09T06:52:52.186Z,9.02
2023-11-09T06:55:19.235Z,9.38
2023-11-09T06:57:47.196Z,8.40
2023-11-09T07:00:14.693Z,8.50
2023-11-09T07:02:44.818Z,9.35
2023-11-09T07:05:12.405Z,8.55
2023-11-09T07:07:39.478Z,8.10
2023-11-09T07:10:08.607Z,8.10
2023-11-09T07:12:39.693Z,8.77
2023-11-09T07:15:10.548Z,9.10
2023-11-09T07:17:37.440Z,8.00
2023-11-09T07:20:04.738Z,7.60
2023-11-09T07:22:31.744Z,8.60
2023-11-09T07:25:08.216Z,8.57
2023-11-09T07:27:40.392Z,8.88
2023-11-09T07:30:08.221Z,8.35
2023-11-09T07:32:36.541Z,8.90
2023-11-09T07:35:03.798Z,8.70
2023-11-09T07:37:30.978Z,9.35
2023-11-09T07:39:59.036Z,9.10
2023-11-09T07:42:26.408Z,8.52
2023-11-09T07:44:53.364Z,10.00
2023-11-09T07:47:20.280Z,9.30
2023-11-09T07:49:48.331Z,9.30
2023-11-09T07:52:16.249Z,8.27
2023-11-09T07:54:45.268Z,9.50
2023-11-09T07:57:12.871Z,8.93
2023-11-09T07:59:40.159Z,9.45
2023-11-09T08:02:08.522Z,8.20
2023-11-09T08:04:36.049Z,8.40
2023-11-09T08:07:03.304Z,8.88
2023-11-09T08:09:31.344Z,9.25
2023-11-09T08:11:58.543Z,7.93
2023-11-09T08:14:27.621Z,9.02
2023-11-09T08:16:54.556Z,8.85
2023-11-09T08:19:23.524Z,8.05
2023-11-09T08:21:50.695Z,8.70
2023-11-09T08:24:18.213Z,8.23
2023-11-09T08:26:45.291Z,7.40
2023-11-09T08:29:12.250Z,8.27
2023-11-09T08:31:39.889Z,8.27
2023-11-09T08:34:08.151Z,7.50
2023-11-09T08:36:35.278Z,7.53
2023-11-09T08:39:04.000Z,8.07
2023-11-09T08:41:32.067Z,7.57
2023-11-09T08:43:58.987Z,6.93
2023-11-09T08:46:25.959Z,7.47
2023-11-09T08:48:52.884Z,7.25
2023-11-09T08:51:19.781Z,7.45
2023-11-09T08:53:50.754Z,7.93
2023-11-09T08:58:47.649Z,6.47
2023-11-09T09:01:20.762Z,7.22
2023-11-09T09:06:19.157Z,6.57
2023-11-09T09:08:47.957Z,6.55
2023-11-09T09:11:15.800Z,7.10
2023-11-09T09:13:45.907Z,7.60
2023-11-09T09:16:16.986Z,6.65
2023-11-09T09:18:47.750Z,6.25
2023-11-09T09:21:16.001Z,6.35
2023-11-09T09:23:42.953Z,6.78
2023-11-09T09:26:15.471Z,6.32
2023-11-09T09:28:50.325Z,6.72
2023-11-09T09:31:20.892Z,6.30
2023-11-09T09:34:03.858Z,6.00
2023-11-09T09:36:31.003Z,7.17
2023-11-09T09:38:58.387Z,6.03
2023-11-09T09:41:30.083Z,5.95
2023-11-09T09:44:00.139Z,6.35
2023-11-09T09:46:29.813Z,5.72
2023-11-09T09:48:56.901Z,6.13
2023-11-09T09:51:23.916Z,6.43
2023-11-09T09:53:52.708Z,5.90
2023-11-09T09:56:20.707Z,5.15
2023-11-09T09:58:49.209Z,6.38
2023-11-09T10:01:20.874Z,5.93
2023-11-09T10:03:50.295Z,5.50
2023-11-09T10:06:19.109Z,5.63
2023-11-09T10:08:46.469Z,5.50
2023-11-09T10:11:16.787Z,5.88
2023-11-09T10:13:47.957Z,5.75
2023-11-09T10:16:20.229Z,6.00
2023-11-09T10:18:50.280Z,6.18
2023-11-09T10:21:19.196Z,5.53
2023-11-09T10:23:54.547Z,5.68
2023-11-09T10:26:21.568Z,5.57
2023-11-09T10:28:56.767Z,5.78
2023-11-09T10:31:32.807Z,5.57
2023-11-09T10:33:59.872Z,5.20
2023-11-09T10:36:27.190Z,5.45
2023-11-09T10:38:54.410Z,5.70
2023-11-09T10:41:53.439Z,5.88
2023-11-09T10:44:11.646Z,5.32
2023-11-09T10:46:41.607Z,5.25
2023-11-09T10:49:09.757Z,5.45
2023-11-09T10:51:38.835Z,6.25
2023-11-09T10:54:09.433Z,5.32
2023-11-09T10:56:37.173Z,6.22
2023-11-09T10:59:06.591Z,4.65
2023-11-09T11:01:34.580Z,4.90
2023-11-09T11:04:09.694Z,5.25
2023-11-09T11:06:53.018Z,5.20
2023-11-09T11:12:03.428Z,5.03
2023-11-09T11:14:33.256Z,5.57
2023-11-09T11:17:09.021Z,5.07
2023-11-09T11:19:50.887Z,5.50
2023-11-09T11:22:46.020Z,6.68
2023-11-09T11:25:39.343Z,5.25
2023-11-09T11:28:12.402Z,6.93
2023-11-09T11:33:20.317Z,5.35
2023-11-09T11:35:52.862Z,6.15
2023-11-09T11:38:30.277Z,5.28
2023-11-09T11:41:04.076Z,6.22
2023-11-09T11:43:44.535Z,5.60
2023-11-09T11:46:18.704Z,4.97
2023-11-09T11:48:54.801Z,5.40
2023-11-09T11:51:23.449Z,5.55
2023-11-09T11:53:59.512Z,5.32
2023-11-09T11:56:34.422Z,5.70
2023-11-09T11:59:08.569Z,5.93
2023-11-09T12:01:35.994Z,5.10
2023-11-09T12:04:06.325Z,4.10
2023-11-09T12:06:37.045Z,4.93
2023-11-09T12:09:10.054Z,4.75
2023-11-09T12:11:48.505Z,5.13
2023-11-09T12:14:20.873Z,5.22
2023-11-09T12:16:48.750Z,4.68
2023-11-09T12:19:17.674Z,4.65
2023-11-09T12:21:48.584Z,4.55
2023-11-09T12:24:24.967Z,5.05
2023-11-09T12:27:10.109Z,5.30
2023-11-09T12:29:39.479Z,4.55
2023-11-09T12:32:07.908Z,4.40
2023-11-09T12:34:37.834Z,4.93
2023-11-09T12:37:12.302Z,4.63
2023-11-09T12:39:40.229Z,4.65
2023-11-09T12:42:07.198Z,4.07
2023-11-09T12:44:36.566Z,4.72
2023-11-09T12:47:22.407Z,5.47
2023-11-09T12:49:54.888Z,4.38
2023-11-09T12:52:28.123Z,5.05
2023-11-09T12:54:57.311Z,4.82
2023-11-09T12:57:24.710Z,5.07
2023-11-09T12:59:52.490Z,4.85
2023-11-09T13:02:22.147Z,4.20
2023-11-09T13:04:53.889Z,3.95
2023-11-09T13:07:26.405Z,3.75
2023-11-09T13:10:12.804Z,4.43
2023-11-09T13:12:44.852Z,3.70
2023-11-09T13:15:12.669Z,3.45
2023-11-09T13:17:54.757Z,3.88
2023-11-09T13:20:31.928Z,4.50
2023-11-09T13:23:08.731Z,3.15
2023-11-09T13:25:46.535Z,2.88
2023-11-09T13:28:17.265Z,3.08
2023-11-09T13:31:00.947Z,2.90
2023-11-09T13:33:38.732Z,2.80
2023-11-09T13:36:11.132Z,2.95
2023-11-09T13:38:58.150Z,3.20
2023-11-09T13:41:40.664Z,3.10
2023-11-09T13:44:08.675Z,2.87
2023-11-09T13:46:42.277Z,2.30
2023-11-09T13:49:30.666Z,2.55
2023-11-09T13:51:58.353Z,2.95
2023-11-09T13:54:37.683Z,2.88
2023-11-09T13:57:14.551Z,2.95
2023-11-09T13:59:46.624Z,3.40
2023-11-09T14:02:17.804Z,2.88
2023-11-09T14:04:53.174Z,3.08
2023-11-09T14:07:21.619Z,2.97
2023-11-09T14:09:48.570Z,3.47
2023-11-09T14:12:35.524Z,3.45
2023-11-09T14:15:10.063Z,3.13
2023-11-09T14:17:37.865Z,3.15
2023-11-09T14:20:14.078Z,3.38
2023-11-09T14:22:41.806Z,2.47
2023-11-09T14:25:11.215Z,3.28
2023-11-09T14:27:38.142Z,3.10
2023-11-09T14:30:05.509Z,3.17
2023-11-09T14:32:35.006Z,2.80
2023-11-09T14:35:03.555Z,2.58
2023-11-09T14:37:34.033Z,2.95
2023-11-09T14:40:20.264Z,3.05
2023-11-09T14:43:03.775Z,3.42
2023-11-09T14:45:36.611Z,3.03
2023-11-09T14:48:04.349Z,3.28
2023-11-09T14:50:33.758Z,3.20
2023-11-09T14:53:07.185Z,2.70
2023-11-09T14:55:35.223Z,2.50
2023-11-09T14:58:27.296Z,3.13
2023-11-09T15:00:54.222Z,2.80
2023-11-09T15:03:24.640Z,2.17
2023-11-09T15:05:59.061Z,2.85
2023-11-09T15:08:29.698Z,2.60
2023-11-09T15:10:57.915Z,3.05
2023-11-09T15:13:27.411Z,2.83
2023-11-09T15:15:54.742Z,2.78
2023-11-09T15:18:22.819Z,2.90
2023-11-09T15:20:50.290Z,2.95
2023-11-09T15:23:17.204Z,3.20
2023-11-09T15:25:48.748Z,3.08
2023-11-09T15:28:15.842Z,2.40
2023-11-09T15:30:43.245Z,3.17
2023-11-09T15:33:15.821Z,3.00
2023-11-09T15:35:47.293Z,3.20
2023-11-09T15:38:14.882Z,3.15
2023-11-09T15:41:15.213Z,2.90
2023-11-09T15:43:39.713Z,3.05
2023-11-09T15:46:12.389Z,2.53
2023-11-09T15:48:43.599Z,3.17
2023-11-09T15:51:10.813Z,2.97
2023-11-09T15:53:45.114Z,2.75
2023-11-09T15:56:13.562Z,3.10
2023-11-09T15:58:43.114Z,2.83
2023-11-09T16:01:11.582Z,2.60
2023-11-09T16:03:40.535Z,3.38
2023-11-09T16:06:10.325Z,3.00
2023-11-09T16:08:37.371Z,3.22
2023-11-09T16:11:04.627Z,2.90
2023-11-09T16:13:31.698Z,2.90
2023-11-09T16:15:59.309Z,2.92
2023-11-09T16:18:28.040Z,3.67
2023-11-09T16:20:55.047Z,2.50
2023-11-09T16:23:22.147Z,3.30
2023-11-09T16:25:49.458Z,2.92
2023-11-09T16:28:22.174Z,2.90
2023-11-09T16:30:50.962Z,3.33
2023-11-09T16:33:18.720Z,3.33
2023-11-09T16:35:46.778Z,3.08
2023-11-09T16:38:14.177Z,2.80
2023-11-09T16:40:41.964Z,2.92
2023-11-09T16:43:09.876Z,2.85
2023-11-09T16:45:37.057Z,2.72
2023-11-09T16:48:05.447Z,3.15
2023-11-09T16:50:33.684Z,3.90
2023-11-09T16:53:01.207Z,2.95
2023-11-09T16:55:29.240Z,3.05
2023-11-09T16:57:56.282Z,3.38
2023-11-09T17:00:24.882Z,3.05
2023-11-09T17:02:52.507Z,3.20
2023-11-09T17:05:20.052Z,3.35
2023-11-09T17:07:47.744Z,3.60
2023-11-09T17:10:15.697Z,3.50
2023-11-09T17:12:43.664Z,3.55
2023-11-09T17:15:13.337Z,3.33
2023-11-09T17:17:45.107Z,3.47
2023-11-09T17:20:13.973Z,3.45
2023-11-09T17:22:44.697Z,3.10
2023-11-09T17:25:12.047Z,3.50
2023-11-09T17:27:39.245Z,3.83
2023-11-09T17:30:13.792Z,3.33
2023-11-09T17:32:41.513Z,3.45
2023-11-09T17:35:10.330Z,3.13
2023-11-09T17:37:38.954Z,3.08
2023-11-09T17:40:12.488Z,2.72
2023-11-09T17:42:40.568Z,3.55
2023-11-09T17:45:08.555Z,3.25
2023-11-09T17:47:35.831Z,3.38
2023-11-09T17:50:03.002Z,3.08
2023-11-09T17:52:31.882Z,3.03
2023-11-09T17:54:59.715Z,2.85
2023-11-09T17:57:26.602Z,2.67
2023-11-09T17:59:53.545Z,3.30
2023-11-09T18:02:20.518Z,3.00
2023-11-09T18:04:47.528Z,3.42
2023-11-09T18:07:16.062Z,2.92
2023-11-09T18:09:44.824Z,3.78
2023-11-09T18:12:11.933Z,3.15
2023-11-09T18:14:44.957Z,3.10
2023-11-09T18:19:43.358Z,3.40
2023-11-09T18:22:10.266Z,3.13
2023-11-09T18:24:38.452Z,2.92
2023-11-09T18:27:06.190Z,3.00
2023-11-09T18:29:33.889Z,2.70
2023-11-09T18:32:00.922Z,2.47
2023-11-09T18:34:29.761Z,3.63
2023-11-09T18:36:56.966Z,3.35
2023-11-09T18:39:24.065Z,2.97
2023-11-09T18:41:51.005Z,3.33
2023-11-09T18:44:20.128Z,3.00
2023-11-09T18:46:50.095Z,3.15
2023-11-09T18:51:47.195Z,3.10
2023-11-09T18:54:14.226Z,3.03
2023-11-09T18:56:41.200Z,2.92
2023-11-09T18:59:08.090Z,2.83
2023-11-09T19:01:35.879Z,3.33
2023-11-09T19:06:33.227Z,3.10
2023-11-09T19:09:00.750Z,2.92
2023-11-09T19:11:28.743Z,3.08
2023-11-09T19:13:56.345Z,3.20
2023-11-09T19:16:23.586Z,3.05
2023-11-09T19:18:51.389Z,3.35
2023-11-09T19:23:49.267Z,2.92
2023-11-09T19:26:16.613Z,3.50
2023-11-09T19:28:43.513Z,3.67
2023-11-09T19:31:10.748Z,3.10
2023-11-09T19:33:38.772Z,3.00
2023-11-09T19:36:09.789Z,2.88
2023-11-09T19:38:37.373Z,3.10
2023-11-09T19:41:04.542Z,3.30
2023-11-09T19:43:31.380Z,3.63
2023-11-09T19:45:58.483Z,3.03
2023-11-09T19:48:25.583Z,2.95
2023-11-09T19:50:52.585Z,2.80
2023-11-09T19:53:20.641Z,3.08
2023-11-09T19:55:47.812Z,3.25
2023-11-09T19:58:15.755Z,3.75
2023-11-09T20:00:45.260Z,2.90
2023-11-09T20:03:13.115Z,3.67
2023-11-09T20:05:41.254Z,3.50
2023-11-09T20:08:09.218Z,2.92
2023-11-09T20:10:36.301Z,3.15
2023-11-09T20:13:04.959Z,3.25
2023-11-09T20:15:32.452Z,3.20
2023-11-09T20:18:01.372Z,3.20
2023-11-09T20:20:31.768Z,3.22
2023-11-09T20:22:59.298Z,3.28
2023-11-09T20:25:27.208Z,3.10
2023-11-09T20:27:55.983Z,3.20
2023-11-09T20:30:23.663Z,3.70
2023-11-09T20:32:51.163Z,3.13
2023-11-09T20:35:18.548Z,2.83
2023-11-09T20:37:45.978Z,3.03
2023-11-09T20:40:18.072Z,3.10
2023-11-09T20:42:46.703Z,3.30
2023-11-09T20:45:14.067Z,3.13
2023-11-09T20:47:42.233Z,3.70
2023-11-09T20:50:15.640Z,3.42
2023-11-09T20:52:48.594Z,3.47
2023-11-09T20:55:21.400Z,4.35
2023-11-09T20:57:50.829Z,3.50
2023-11-09T21:00:25.264Z,3.30
2023-11-09T21:02:54.619Z,5.38
2023-11-09T21:05:22.942Z,4.70
2023-11-09T21:07:51.427Z,8.30
2023-11-09T21:10:18.863Z,8.63
2023-11-09T21:12:47.118Z,9.00
2023-11-09T21:15:14.373Z,9.63
2023-11-09T21:17:44.122Z,9.38
2023-11-09T21:20:13.665Z,10.68
2023-11-09T21:22:40.722Z,11.75
2023-11-09T21:25:08.728Z,11.00
2023-11-09T21:27:35.769Z,11.20
2023-11-09T21:30:03.785Z,11.70
2023-11-09T21:32:32.117Z,12.68
2023-11-09T21:34:59.123Z,12.38
2023-11-09T21:37:28.797Z,13.07
2023-11-09T21:39:56.063Z,12.48
2023-11-09T21:42:23.047Z,13.73
2023-11-09T21:44:50.145Z,13.40
2023-11-09T21:47:17.810Z,13.95
2023-11-09T21:49:48.529Z,13.43
2023-11-09T21:52:15.498Z,13.52
2023-11-09T21:54:42.964Z,14.02
2023-11-09T21:57:14.538Z,14.02
2023-11-09T21:59:42.194Z,13.80
2023-11-09T22:02:09.787Z,15.05
2023-11-09T22:04:39.032Z,14.90
2023-11-09T22:07:06.427Z,14.75
2023-11-09T22:09:34.598Z,15.35
2023-11-09T22:12:02.601Z,14.02
2023-11-09T22:14:30.547Z,14.00
2023-11-09T22:16:59.038Z,16.02
2023-11-09T22:19:26.144Z,14.90
2023-11-09T22:21:53.157Z,14.90
2023-11-09T22:24:20.133Z,14.65
2023-11-09T22:26:50.205Z,14.93
2023-11-09T22:29:17.152Z,15.38
2023-11-09T22:31:44.483Z,15.98
2023-11-09T22:34:11.414Z,14.80
2023-11-09T22:36:38.970Z,15.18
2023-11-09T22:39:06.706Z,15.77
2023-11-09T22:41:33.835Z,13.90
2023-11-09T22:44:00.794Z,12.55
2023-11-09T22:46:27.911Z,13.52
2023-11-09T22:48:55.718Z,12.70
2023-11-09T22:51:22.830Z,12.77
2023-11-09T22:53:49.965Z,14.00
2023-11-09T22:56:16.791Z,13.20
2023-11-09T22:58:43.679Z,13.27
2023-11-09T23:01:10.547Z,14.25
2023-11-09T23:03:37.720Z,14.77
2023-11-09T23:06:04.905Z,14.25
2023-11-09T23:08:35.404Z,15.98
2023-11-09T23:11:02.593Z,13.23
2023-11-09T23:13:29.738Z,12.68
2023-11-09T23:15:57.945Z,13.77
2023-11-09T23:18:25.678Z,13.32
2023-11-09T23:20:53.397Z,14.13
2023-11-09T23:23:20.377Z,15.85
2023-11-09T23:25:47.945Z,16.88
2023-11-09T23:28:15.072Z,16.48
2023-11-09T23:30:44.154Z,13.57
2023-11-09T23:33:11.414Z,15.57
2023-11-09T23:35:38.730Z,14.10
2023-11-09T23:38:05.541Z,14.48
2023-11-09T23:40:32.549Z,15.23
2023-11-09T23:42:59.398Z,13.82
2023-11-09T23:45:27.990Z,19.40
2023-11-09T23:47:55.058Z,18.85
2023-11-09T23:50:21.896Z,15.15
2023-11-09T23:52:48.910Z,14.52
2023-11-09T23:55:17.450Z,13.23
2023-11-09T23:57:46.586Z,13.82
